sensor_id;sensor_type;location;lat;lon;timestamp;pressure;altitude;pressure_sealevel;temperature;humidity
56600;BME280;51832;48.152;11.530;2023-07-16T07:14:58;95737.91;;;25.06;89.19
56600;BME280;51832;48.152;11.530;2023-07-16T07:19:58;95740.50;;;25.64;84.38
56600;BME280;51832;48.152;11.530;2023-07-16T07:24:58;95741.03;;;25.75;80.57
56600;BME280;51832;48.152;11.530;2023-07-16T07:29:59;95744.91;;;25.91;78.93
56600;BME280;51832;48.152;11.530;2023-07-16T07:34:59;95744.00;;;26.04;77.79
56600;BME280;51832;48.152;11.530;2023-07-16T07:40:00;95746.72;;;26.13;77.21
56600;BME280;51832;48.152;11.530;2023-07-16T07:45:00;95745.91;;;26.12;76.76
56600;BME280;51832;48.152;11.530;2023-07-16T07:50:01;95745.28;;;26.15;77.03
56600;BME280;51832;48.152;11.530;2023-07-16T07:55:02;95739.50;;;26.31;75.55
56600;BME280;51832;48.152;11.530;2023-07-16T08:00:03;95735.22;;;26.38;75.55
56600;BME280;51832;48.152;11.530;2023-07-16T08:05:04;95731.94;;;26.76;75.06
56600;BME280;51832;48.152;11.530;2023-07-16T08:10:05;95724.50;;;26.99;75.11
56600;BME280;51832;48.152;11.530;2023-07-16T08:15:06;95720.63;;;27.25;74.63
56600;BME280;51832;48.152;11.530;2023-07-16T08:20:08;95709.94;;;27.38;73.84
56600;BME280;51832;48.152;11.530;2023-07-16T08:25:08;95710.75;;;27.47;73.35
56600;BME280;51832;48.152;11.530;2023-07-16T08:30:09;95704.22;;;27.56;73.01
56600;BME280;51832;48.152;11.530;2023-07-16T08:35:09;95707.66;;;27.74;72.24
56600;BME280;51832;48.152;11.530;2023-07-16T08:40:16;95708.91;;;27.77;72.14
56600;BME280;51832;48.152;11.530;2023-07-16T08:45:17;95707.44;;;27.88;71.85
56600;BME280;51832;48.152;11.530;2023-07-16T08:50:19;95691.00;;;27.93;71.75
56600;BME280;51832;48.152;11.530;2023-07-16T08:55:20;95696.56;;;27.97;71.73
56600;BME280;51832;48.152;11.530;2023-07-16T09:00:21;95694.13;;;28.04;71.39
56600;BME280;51832;48.152;11.530;2023-07-16T09:05:23;95696.19;;;28.07;71.20
56600;BME280;51832;48.152;11.530;2023-07-16T09:10:23;95677.91;;;28.04;70.90
56600;BME280;51832;48.152;11.530;2023-07-16T09:15:27;95671.00;;;28.15;70.91
56600;BME280;51832;48.152;11.530;2023-07-16T09:20:29;95690.38;;;28.17;70.88
56600;BME280;51832;48.152;11.530;2023-07-16T09:25:31;95689.06;;;28.32;70.15
56600;BME280;51832;48.152;11.530;2023-07-16T09:30:32;95682.06;;;28.30;70.36
56600;BME280;51832;48.152;11.530;2023-07-16T09:35:36;95675.28;;;28.24;70.27
56600;BME280;51832;48.152;11.530;2023-07-16T09:40:37;95671.31;;;28.22;67.83
56600;BME280;51832;48.152;11.530;2023-07-16T09:45:38;95676.25;;;28.20;69.81
56600;BME280;51832;48.152;11.530;2023-07-16T09:50:45;95650.13;;;28.24;70.20
56600;BME280;51832;48.152;11.530;2023-07-16T09:55:48;95654.81;;;28.36;69.34
56600;BME280;51832;48.152;11.530;2023-07-16T10:00:48;95663.66;;;28.24;69.74
56600;BME280;51832;48.152;11.530;2023-07-16T10:05:50;95661.66;;;28.33;68.98
56600;BME280;51832;48.152;11.530;2023-07-16T10:10:56;95655.69;;;28.27;68.55
56600;BME280;51832;48.152;11.530;2023-07-16T10:15:58;95656.91;;;28.30;68.67
56600;BME280;51832;48.152;11.530;2023-07-16T10:21:04;95647.88;;;28.26;68.86
56600;BME280;51832;48.152;11.530;2023-07-16T10:26:12;95656.13;;;28.29;68.69
56600;BME280;51832;48.152;11.530;2023-07-16T10:31:23;95657.78;;;28.43;68.39
56600;BME280;51832;48.152;11.530;2023-07-16T10:36:24;95641.00;;;28.49;67.95
56600;BME280;51832;48.152;11.530;2023-07-16T10:41:24;95648.19;;;28.45;68.04
56600;BME280;51832;48.152;11.530;2023-07-16T10:46:25;95640.50;;;28.56;67.74
56600;BME280;51832;48.152;11.530;2023-07-16T10:51:26;95643.72;;;28.49;68.04
56600;BME280;51832;48.152;11.530;2023-07-16T10:56:26;95636.13;;;28.63;67.36
56600;BME280;51832;48.152;11.530;2023-07-16T11:01:29;95639.75;;;28.68;67.48
56600;BME280;51832;48.152;11.530;2023-07-16T11:06:30;95637.91;;;28.80;66.79
56600;BME280;51832;48.152;11.530;2023-07-16T11:11:30;95632.59;;;28.84;66.75
56600;BME280;51832;48.152;11.530;2023-07-16T11:16:35;95630.56;;;28.81;66.83
56600;BME280;51832;48.152;11.530;2023-07-16T11:21:36;95631.97;;;28.66;67.12
56600;BME280;51832;48.152;11.530;2023-07-16T11:26:37;95625.28;;;28.63;67.29
56600;BME280;51832;48.152;11.530;2023-07-16T11:31:39;95617.28;;;28.67;67.09
56600;BME280;51832;48.152;11.530;2023-07-16T11:36:41;95620.09;;;28.71;67.20
56600;BME280;51832;48.152;11.530;2023-07-16T11:41:42;95613.25;;;28.73;67.10
56600;BME280;51832;48.152;11.530;2023-07-16T11:46:46;95604.38;;;28.85;66.51
56600;BME280;51832;48.152;11.530;2023-07-16T11:51:47;95604.06;;;28.86;66.57
56600;BME280;51832;48.152;11.530;2023-07-16T11:56:47;95602.47;;;28.85;66.26
56600;BME280;51832;48.152;11.530;2023-07-16T12:01:48;95595.47;;;28.84;66.43
56600;BME280;51832;48.152;11.530;2023-07-16T12:06:49;95603.50;;;28.81;66.51
56600;BME280;51832;48.152;11.530;2023-07-16T12:11:49;95588.84;;;28.82;66.91
56600;BME280;51832;48.152;11.530;2023-07-16T12:16:50;95590.06;;;28.84;67.18
56600;BME280;51832;48.152;11.530;2023-07-16T12:21:50;95579.22;;;28.84;67.20
56600;BME280;51832;48.152;11.530;2023-07-16T12:26:51;95571.97;;;28.76;67.05
56600;BME280;51832;48.152;11.530;2023-07-16T12:31:51;95585.13;;;28.65;67.79
56600;BME280;51832;48.152;11.530;2023-07-16T12:36:52;95594.38;;;28.64;67.92
56600;BME280;51832;48.152;11.530;2023-07-16T12:41:53;95581.81;;;28.60;68.31
56600;BME280;51832;48.152;11.530;2023-07-16T12:46:54;95587.38;;;28.63;68.36
56600;BME280;51832;48.152;11.530;2023-07-16T12:51:54;95599.66;;;28.61;68.30
56600;BME280;51832;48.152;11.530;2023-07-16T12:56:55;95595.31;;;28.69;67.85
56600;BME280;51832;48.152;11.530;2023-07-16T13:01:55;95590.78;;;28.73;67.94
56600;BME280;51832;48.152;11.530;2023-07-16T13:06:56;95591.13;;;28.71;67.88
56600;BME280;51832;48.152;11.530;2023-07-16T13:11:56;95587.28;;;28.72;68.17
56600;BME280;51832;48.152;11.530;2023-07-16T13:16:56;95584.25;;;28.74;67.94
56600;BME280;51832;48.152;11.530;2023-07-16T13:21:57;95592.69;;;28.72;67.75
56600;BME280;51832;48.152;11.530;2023-07-16T13:26:57;95598.66;;;28.65;67.79
56600;BME280;51832;48.152;11.530;2023-07-16T13:31:58;95581.63;;;28.65;67.64
56600;BME280;51832;48.152;11.530;2023-07-16T13:36:58;95576.53;;;28.63;68.20
56600;BME280;51832;48.152;11.530;2023-07-16T13:41:58;95586.06;;;28.70;67.54
56600;BME280;51832;48.152;11.530;2023-07-16T13:46:59;95581.38;;;28.79;67.74
56600;BME280;51832;48.152;11.530;2023-07-16T13:51:59;95579.59;;;28.83;67.88
56600;BME280;51832;48.152;11.530;2023-07-16T13:57:00;95567.16;;;28.82;67.94
56600;BME280;51832;48.152;11.530;2023-07-16T14:02:01;95574.16;;;28.83;67.43
56600;BME280;51832;48.152;11.530;2023-07-16T14:07:03;95577.56;;;28.71;68.08
56600;BME280;51832;48.152;11.530;2023-07-16T14:12:04;95575.47;;;28.77;68.22
56600;BME280;51832;48.152;11.530;2023-07-16T14:17:05;95578.31;;;28.80;68.09
56600;BME280;51832;48.152;11.530;2023-07-16T14:22:05;95580.53;;;28.78;68.22
56600;BME280;51832;48.152;11.530;2023-07-16T14:27:06;95581.53;;;28.74;68.46
56600;BME280;51832;48.152;11.530;2023-07-16T14:32:07;95574.44;;;28.69;68.33
56600;BME280;51832;48.152;11.530;2023-07-16T14:37:07;95577.56;;;28.71;68.37
56600;BME280;51832;48.152;11.530;2023-07-16T14:42:07;95576.91;;;28.74;68.59
56600;BME280;51832;48.152;11.530;2023-07-16T14:47:09;95575.66;;;28.72;68.63
56600;BME280;51832;48.152;11.530;2023-07-16T14:52:09;95584.72;;;28.76;68.30
56600;BME280;51832;48.152;11.530;2023-07-16T14:57:09;95588.22;;;28.76;68.44
56600;BME280;51832;48.152;11.530;2023-07-16T15:02:10;95585.78;;;28.83;68.42
56600;BME280;51832;48.152;11.530;2023-07-16T15:07:10;95587.34;;;28.84;68.66
56600;BME280;51832;48.152;11.530;2023-07-16T15:12:10;95581.25;;;28.87;68.48
56600;BME280;51832;48.152;11.530;2023-07-16T15:17:11;95567.72;;;28.87;68.44
56600;BME280;51832;48.152;11.530;2023-07-16T15:22:11;95570.22;;;28.92;68.08
56600;BME280;51832;48.152;11.530;2023-07-16T15:27:12;95566.72;;;28.92;67.96
56600;BME280;51832;48.152;11.530;2023-07-16T15:32:13;95570.69;;;28.94;67.82
56600;BME280;51832;48.152;11.530;2023-07-16T15:43:49;95570.25;;;28.72;62.43
56600;BME280;51832;48.152;11.530;2023-07-16T15:48:50;95544.16;;;29.85;58.08
56600;BME280;51832;48.152;11.530;2023-07-16T15:53:54;95551.97;;;31.11;54.80
56600;BME280;51832;48.152;11.530;2023-07-16T15:58:54;95543.78;;;30.95;54.65
56600;BME280;51832;48.152;11.530;2023-07-16T16:03:55;95541.72;;;31.35;53.66
56600;BME280;51832;48.152;11.530;2023-07-16T16:08:55;95540.81;;;32.33;51.78
56600;BME280;51832;48.152;11.530;2023-07-16T16:13:56;95547.91;;;33.22;49.06
56600;BME280;51832;48.152;11.530;2023-07-16T16:18:56;95556.63;;;33.08;48.15
56600;BME280;51832;48.152;11.530;2023-07-16T16:23:56;95559.09;;;32.32;49.76
56600;BME280;51832;48.152;11.530;2023-07-16T16:28:58;95554.50;;;31.51;51.85
56600;BME280;51832;48.152;11.530;2023-07-16T16:33:58;95556.44;;;31.34;51.80
56600;BME280;51832;48.152;11.530;2023-07-16T16:38:59;95546.53;;;32.66;49.09
56600;BME280;51832;48.152;11.530;2023-07-16T16:43:59;95544.56;;;34.67;44.33
56600;BME280;51832;48.152;11.530;2023-07-16T16:49:00;95556.28;;;36.00;40.83
56600;BME280;51832;48.152;11.530;2023-07-16T16:54:02;95543.41;;;36.94;38.44
56600;BME280;51832;48.152;11.530;2023-07-16T16:59:03;95550.84;;;38.04;35.90
56600;BME280;51832;48.152;11.530;2023-07-16T17:04:04;95542.94;;;38.31;34.95
56600;BME280;51832;48.152;11.530;2023-07-16T17:09:04;95543.44;;;37.90;35.89
56600;BME280;51832;48.152;11.530;2023-07-16T17:14:05;95548.13;;;38.00;34.80
56600;BME280;51832;48.152;11.530;2023-07-16T17:19:05;95538.69;;;37.06;36.10
56600;BME280;51832;48.152;11.530;2023-07-16T17:24:06;95536.34;;;36.93;36.85
56600;BME280;51832;48.152;11.530;2023-07-16T17:29:07;95534.38;;;38.18;34.58
56600;BME280;51832;48.152;11.530;2023-07-16T17:34:07;95542.69;;;37.79;35.06
56600;BME280;51832;48.152;11.530;2023-07-16T17:39:07;95537.00;;;38.50;34.20
56600;BME280;51832;48.152;11.530;2023-07-16T17:44:08;95537.28;;;38.77;33.48
56600;BME280;51832;48.152;11.530;2023-07-16T17:49:09;95549.75;;;37.27;35.81
56600;BME280;51832;48.152;11.530;2023-07-16T17:54:09;95558.34;;;37.22;36.02
56600;BME280;51832;48.152;11.530;2023-07-16T17:59:10;95572.75;;;36.76;36.71
56600;BME280;51832;48.152;11.530;2023-07-16T18:04:10;95565.59;;;35.85;37.55
56600;BME280;51832;48.152;11.530;2023-07-16T18:09:11;95559.13;;;34.15;41.45
56600;BME280;51832;48.152;11.530;2023-07-16T18:14:12;95557.47;;;34.37;41.56
56600;BME280;51832;48.152;11.530;2023-07-16T18:19:14;95555.09;;;35.02;39.86
56600;BME280;51832;48.152;11.530;2023-07-16T18:24:14;95563.84;;;35.62;38.92
56600;BME280;51832;48.152;11.530;2023-07-16T18:29:14;95560.78;;;35.23;39.33
56600;BME280;51832;48.152;11.530;2023-07-16T18:34:15;95558.13;;;34.60;40.41
56600;BME280;51832;48.152;11.530;2023-07-16T18:39:15;95567.25;;;33.59;43.00
56600;BME280;51832;48.152;11.530;2023-07-16T18:44:16;95565.31;;;32.91;44.27
56600;BME280;51832;48.152;11.530;2023-07-16T18:49:16;95572.69;;;32.32;45.73
56600;BME280;51832;48.152;11.530;2023-07-16T18:54:16;95575.72;;;31.61;47.59
56600;BME280;51832;48.152;11.530;2023-07-16T18:59:17;95574.84;;;31.09;48.80
56600;BME280;51832;48.152;11.530;2023-07-16T19:04:17;95589.00;;;30.87;50.60
56600;BME280;51832;48.152;11.530;2023-07-16T19:09:18;95584.28;;;30.56;51.72
56600;BME280;51832;48.152;11.530;2023-07-16T19:14:18;95578.25;;;30.23;52.65
56600;BME280;51832;48.152;11.530;2023-07-16T19:19:19;95588.13;;;30.15;54.21
56600;BME280;51832;48.152;11.530;2023-07-16T19:24:19;95580.91;;;30.35;54.24
56600;BME280;51832;48.152;11.530;2023-07-16T19:29:19;95582.91;;;30.50;54.08
56600;BME280;51832;48.152;11.530;2023-07-16T19:34:20;95579.34;;;30.74;53.08
56600;BME280;51832;48.152;11.530;2023-07-16T19:39:20;95591.59;;;30.68;52.63
56600;BME280;51832;48.152;11.530;2023-07-16T19:44:21;95596.72;;;30.57;53.33
56600;BME280;51832;48.152;11.530;2023-07-16T19:49:21;95600.94;;;30.43;53.46
56600;BME280;51832;48.152;11.530;2023-07-16T19:54:22;95602.22;;;30.33;53.07
56600;BME280;51832;48.152;11.530;2023-07-16T19:59:22;95613.00;;;30.17;54.15
56600;BME280;51832;48.152;11.530;2023-07-16T20:04:23;95627.72;;;29.92;54.86
56600;BME280;51832;48.152;11.530;2023-07-16T20:09:23;95636.41;;;29.73;55.46
56600;BME280;51832;48.152;11.530;2023-07-16T20:14:26;95648.16;;;29.65;56.03
56600;BME280;51832;48.152;11.530;2023-07-16T20:19:27;95650.53;;;29.66;56.25
56600;BME280;51832;48.152;11.530;2023-07-16T20:24:27;95645.78;;;29.51;56.94
56600;BME280;51832;48.152;11.530;2023-07-16T20:29:28;95647.78;;;29.42;56.99
56600;BME280;51832;48.152;11.530;2023-07-16T20:34:28;95647.66;;;29.39;57.19
56600;BME280;51832;48.152;11.530;2023-07-16T20:39:30;95638.81;;;29.29;57.94
56600;BME280;51832;48.152;11.530;2023-07-16T20:44:33;95634.13;;;29.39;58.00
56600;BME280;51832;48.152;11.530;2023-07-16T20:49:34;95640.66;;;29.38;58.18
56600;BME280;51832;48.152;11.530;2023-07-16T20:54:36;95636.28;;;29.00;59.22
56600;BME280;51832;48.152;11.530;2023-07-16T20:59:37;95638.50;;;28.98;59.47
56600;BME280;51832;48.152;11.530;2023-07-16T21:04:37;95629.88;;;28.84;59.62
56600;BME280;51832;48.152;11.530;2023-07-16T21:09:38;95641.75;;;28.79;59.40
56600;BME280;51832;48.152;11.530;2023-07-16T21:14:38;95640.38;;;28.85;59.28
56600;BME280;51832;48.152;11.530;2023-07-16T21:19:39;95640.06;;;28.87;59.44
56600;BME280;51832;48.152;11.530;2023-07-16T21:24:39;95639.34;;;28.78;59.81
56600;BME280;51832;48.152;11.530;2023-07-16T21:29:39;95634.81;;;28.70;59.86
56600;BME280;51832;48.152;11.530;2023-07-16T21:34:40;95645.63;;;28.70;59.89
56600;BME280;51832;48.152;11.530;2023-07-16T21:39:42;95659.16;;;28.70;59.68
56600;BME280;51832;48.152;11.530;2023-07-16T21:44:42;95659.56;;;28.59;60.08
56600;BME280;51832;48.152;11.530;2023-07-16T21:49:42;95659.56;;;28.59;60.17
56600;BME280;51832;48.152;11.530;2023-07-16T21:54:44;95664.31;;;28.62;59.92
56600;BME280;51832;48.152;11.530;2023-07-16T21:59:46;95658.38;;;28.69;59.42
56600;BME280;51832;48.152;11.530;2023-07-16T22:04:46;95644.38;;;28.67;59.62
56600;BME280;51832;48.152;11.530;2023-07-16T22:09:47;95637.50;;;28.49;60.24
56600;BME280;51832;48.152;11.530;2023-07-16T22:14:48;95641.56;;;28.43;60.67
56600;BME280;51832;48.152;11.530;2023-07-16T22:19:49;95634.53;;;28.21;61.49
56600;BME280;51832;48.152;11.530;2023-07-16T22:24:49;95622.63;;;28.13;61.56
56600;BME280;51832;48.152;11.530;2023-07-16T22:29:49;95626.09;;;28.22;61.04
56600;BME280;51832;48.152;11.530;2023-07-16T22:34:50;95632.13;;;28.28;60.93
56600;BME280;51832;48.152;11.530;2023-07-16T22:39:51;95636.13;;;28.22;60.84
56600;BME280;51832;48.152;11.530;2023-07-16T22:44:51;95631.66;;;28.26;60.84
56600;BME280;51832;48.152;11.530;2023-07-16T22:49:51;95642.81;;;28.24;60.82
56600;BME280;51832;48.152;11.530;2023-07-16T22:54:52;95652.75;;;28.33;60.26
56600;BME280;51832;48.152;11.530;2023-07-16T22:59:52;95650.19;;;28.36;59.98
56600;BME280;51832;48.152;11.530;2023-07-16T23:04:53;95652.88;;;28.15;60.47
56600;BME280;51832;48.152;11.530;2023-07-16T23:09:53;95649.47;;;27.98;62.27
56600;BME280;51832;48.152;11.530;2023-07-16T23:14:53;95653.47;;;27.91;63.56
56600;BME280;51832;48.152;11.530;2023-07-16T23:19:54;95665.22;;;27.95;63.68
56600;BME280;51832;48.152;11.530;2023-07-16T23:24:54;95653.84;;;28.11;63.68
56600;BME280;51832;48.152;11.530;2023-07-16T23:29:55;95665.63;;;28.06;64.03
56600;BME280;51832;48.152;11.530;2023-07-16T23:34:56;95686.78;;;27.83;66.08
56600;BME280;51832;48.152;11.530;2023-07-16T23:39:56;95688.69;;;27.83;66.54
56600;BME280;51832;48.152;11.530;2023-07-16T23:44:57;95688.28;;;27.64;67.58
56600;BME280;51832;48.152;11.530;2023-07-16T23:49:57;95700.06;;;27.50;68.15
56600;BME280;51832;48.152;11.530;2023-07-16T23:54:58;95703.97;;;27.06;69.47
56600;BME280;51832;48.152;11.530;2023-07-16T23:59:58;95708.09;;;26.86;70.65
